sensor_id;sensor_type;location;lat;lon;timestamp;P1;durP1;ratioP1;P2;durP2;ratioP2
41966;SDS011;27656;53.068;8.818;2024-01-11T00:01:44;65.93;;;29.03;;
41966;SDS011;27656;53.068;8.818;2024-01-11T00:04:12;67.03;;;28.27;;
41966;SDS011;27656;53.068;8.818;2024-01-11T00:06:42;70.63;;;29.87;;
41966;SDS011;27656;53.068;8.818;2024-01-11T00:09:09;66.90;;;27.03;;
41966;SDS011;27656;53.068;8.818;2024-01-11T00:11:36;60.83;;;26.83;;
41966;SDS011;27656;53.068;8.818;2024-01-11T00:14:02;63.27;;;26.97;;
41966;SDS011;27656;53.068;8.818;2024-01-11T00:16:29;61.60;;;27.37;;
41966;SDS011;27656;53.068;8.818;2024-01-11T00:18:55;64.83;;;28.67;;
41966;SDS011;27656;53.068;8.818;2024-01-11T00:21:22;64.57;;;29.17;;
41966;SDS011;27656;53.068;8.818;2024-01-11T00:23:49;69.83;;;28.50;;
41966;SDS011;27656;53.068;8.818;2024-01-11T00:26:15;72.60;;;30.67;;
41966;SDS011;27656;53.068;8.818;2024-01-11T00:28:42;75.73;;;32.70;;
41966;SDS011;27656;53.068;8.818;2024-01-11T00:31:08;66.87;;;28.60;;
41966;SDS011;27656;53.068;8.818;2024-01-11T00:33:35;68.13;;;28.70;;
41966;SDS011;27656;53.068;8.818;2024-01-11T00:36:03;74.37;;;29.20;;
41966;SDS011;27656;53.068;8.818;2024-01-11T00:38:29;71.33;;;28.70;;
41966;SDS011;27656;53.068;8.818;2024-01-11T00:40:56;70.60;;;28.17;;
41966;SDS011;27656;53.068;8.818;2024-01-11T00:43:22;74.57;;;29.57;;
41966;SDS011;27656;53.068;8.818;2024-01-11T00:45:49;74.10;;;29.73;;
41966;SDS011;27656;53.068;8.818;2024-01-11T00:48:15;73.13;;;29.60;;
41966;SDS011;27656;53.068;8.818;2024-01-11T00:50:42;77.47;;;30.73;;
41966;SDS011;27656;53.068;8.818;2024-01-11T00:53:08;69.60;;;28.43;;
41966;SDS011;27656;53.068;8.818;2024-01-11T00:55:36;71.17;;;28.23;;
41966;SDS011;27656;53.068;8.818;2024-01-11T00:58:03;73.13;;;27.60;;
41966;SDS011;27656;53.068;8.818;2024-01-11T01:00:29;69.87;;;26.67;;
41966;SDS011;27656;53.068;8.818;2024-01-11T01:02:56;67.63;;;29.67;;
41966;SDS011;27656;53.068;8.818;2024-01-11T01:05:22;76.03;;;29.67;;
41966;SDS011;27656;53.068;8.818;2024-01-11T01:07:49;76.43;;;29.40;;
41966;SDS011;27656;53.068;8.818;2024-01-11T01:10:15;76.80;;;29.97;;
41966;SDS011;27656;53.068;8.818;2024-01-11T01:12:42;69.67;;;28.17;;
41966;SDS011;27656;53.068;8.818;2024-01-11T01:15:08;64.17;;;26.53;;
41966;SDS011;27656;53.068;8.818;2024-01-11T01:17:35;74.07;;;28.17;;
41966;SDS011;27656;53.068;8.818;2024-01-11T01:20:02;69.63;;;28.80;;
41966;SDS011;27656;53.068;8.818;2024-01-11T01:22:29;68.73;;;27.70;;
41966;SDS011;27656;53.068;8.818;2024-01-11T01:24:55;65.43;;;27.20;;
41966;SDS011;27656;53.068;8.818;2024-01-11T01:27:22;73.13;;;28.63;;
41966;SDS011;27656;53.068;8.818;2024-01-11T01:29:48;72.50;;;29.70;;
41966;SDS011;27656;53.068;8.818;2024-01-11T01:32:15;72.57;;;29.83;;
41966;SDS011;27656;53.068;8.818;2024-01-11T01:34:41;78.57;;;29.43;;
41966;SDS011;27656;53.068;8.818;2024-01-11T01:37:10;73.97;;;29.60;;
41966;SDS011;27656;53.068;8.818;2024-01-11T01:39:37;74.43;;;28.73;;
41966;SDS011;27656;53.068;8.818;2024-01-11T01:42:05;73.13;;;28.43;;
41966;SDS011;27656;53.068;8.818;2024-01-11T01:44:32;81.73;;;32.53;;
41966;SDS011;27656;53.068;8.818;2024-01-11T01:47:00;77.60;;;31.13;;
41966;SDS011;27656;53.068;8.818;2024-01-11T01:49:28;72.10;;;27.03;;
41966;SDS011;27656;53.068;8.818;2024-01-11T01:51:55;70.13;;;28.73;;
41966;SDS011;27656;53.068;8.818;2024-01-11T01:54:22;73.50;;;29.13;;
41966;SDS011;27656;53.068;8.818;2024-01-11T01:56:50;69.87;;;27.07;;
41966;SDS011;27656;53.068;8.818;2024-01-11T01:59:18;71.43;;;27.60;;
41966;SDS011;27656;53.068;8.818;2024-01-11T02:01:45;69.03;;;27.13;;
41966;SDS011;27656;53.068;8.818;2024-01-11T02:04:12;69.80;;;28.03;;
41966;SDS011;27656;53.068;8.818;2024-01-11T02:06:40;79.03;;;29.73;;
41966;SDS011;27656;53.068;8.818;2024-01-11T02:09:08;70.70;;;27.70;;
41966;SDS011;27656;53.068;8.818;2024-01-11T02:11:36;72.80;;;28.13;;
41966;SDS011;27656;53.068;8.818;2024-01-11T02:14:03;74.73;;;27.10;;
41966;SDS011;27656;53.068;8.818;2024-01-11T02:16:30;82.93;;;29.90;;
41966;SDS011;27656;53.068;8.818;2024-01-11T02:18:57;72.53;;;27.73;;
41966;SDS011;27656;53.068;8.818;2024-01-11T02:21:23;73.07;;;28.30;;
41966;SDS011;27656;53.068;8.818;2024-01-11T02:24:05;90.03;;;30.43;;
41966;SDS011;27656;53.068;8.818;2024-01-11T02:26:33;88.73;;;29.73;;
41966;SDS011;27656;53.068;8.818;2024-01-11T02:29:00;79.73;;;30.10;;
41966;SDS011;27656;53.068;8.818;2024-01-11T02:31:26;90.33;;;31.97;;
41966;SDS011;27656;53.068;8.818;2024-01-11T02:33:53;87.97;;;32.17;;
41966;SDS011;27656;53.068;8.818;2024-01-11T02:36:21;82.43;;;30.27;;
41966;SDS011;27656;53.068;8.818;2024-01-11T02:38:48;85.67;;;31.67;;
41966;SDS011;27656;53.068;8.818;2024-01-11T02:41:16;83.47;;;29.43;;
41966;SDS011;27656;53.068;8.818;2024-01-11T02:43:49;85.87;;;32.07;;
41966;SDS011;27656;53.068;8.818;2024-01-11T02:46:16;90.27;;;32.00;;
41966;SDS011;27656;53.068;8.818;2024-01-11T02:48:43;81.33;;;30.27;;
41966;SDS011;27656;53.068;8.818;2024-01-11T02:51:10;83.10;;;31.50;;
41966;SDS011;27656;53.068;8.818;2024-01-11T02:53:36;80.40;;;30.97;;
41966;SDS011;27656;53.068;8.818;2024-01-11T02:56:03;81.57;;;29.57;;
41966;SDS011;27656;53.068;8.818;2024-01-11T02:58:30;76.33;;;29.67;;
41966;SDS011;27656;53.068;8.818;2024-01-11T03:00:57;85.17;;;30.60;;
41966;SDS011;27656;53.068;8.818;2024-01-11T03:03:23;80.70;;;29.53;;
41966;SDS011;27656;53.068;8.818;2024-01-11T03:05:50;84.03;;;30.60;;
41966;SDS011;27656;53.068;8.818;2024-01-11T03:08:16;79.87;;;31.33;;
41966;SDS011;27656;53.068;8.818;2024-01-11T03:10:43;70.27;;;29.27;;
41966;SDS011;27656;53.068;8.818;2024-01-11T03:13:09;76.80;;;28.07;;
41966;SDS011;27656;53.068;8.818;2024-01-11T03:15:36;81.50;;;29.90;;
41966;SDS011;27656;53.068;8.818;2024-01-11T03:18:02;75.20;;;30.63;;
41966;SDS011;27656;53.068;8.818;2024-01-11T03:20:29;74.40;;;27.57;;
41966;SDS011;27656;53.068;8.818;2024-01-11T03:22:56;70.23;;;27.03;;
41966;SDS011;27656;53.068;8.818;2024-01-11T03:25:23;79.13;;;28.63;;
41966;SDS011;27656;53.068;8.818;2024-01-11T03:27:49;74.23;;;27.47;;
41966;SDS011;27656;53.068;8.818;2024-01-11T03:30:16;74.87;;;28.23;;
41966;SDS011;27656;53.068;8.818;2024-01-11T03:32:43;72.20;;;27.90;;
41966;SDS011;27656;53.068;8.818;2024-01-11T03:35:09;62.87;;;25.27;;
41966;SDS011;27656;53.068;8.818;2024-01-11T03:37:36;123.40;;;31.93;;
41966;SDS011;27656;53.068;8.818;2024-01-11T03:40:03;81.97;;;30.03;;
41966;SDS011;27656;53.068;8.818;2024-01-11T03:42:30;81.47;;;29.80;;
41966;SDS011;27656;53.068;8.818;2024-01-11T03:44:57;83.63;;;28.40;;
41966;SDS011;27656;53.068;8.818;2024-01-11T03:47:23;83.37;;;29.30;;
41966;SDS011;27656;53.068;8.818;2024-01-11T03:49:50;79.30;;;28.80;;
41966;SDS011;27656;53.068;8.818;2024-01-11T03:52:16;72.90;;;28.07;;
41966;SDS011;27656;53.068;8.818;2024-01-11T03:54:43;85.90;;;30.93;;
41966;SDS011;27656;53.068;8.818;2024-01-11T03:57:10;73.77;;;28.83;;
41966;SDS011;27656;53.068;8.818;2024-01-11T03:59:36;81.57;;;29.60;;
41966;SDS011;27656;53.068;8.818;2024-01-11T04:02:03;74.03;;;27.80;;
41966;SDS011;27656;53.068;8.818;2024-01-11T04:04:29;76.57;;;28.83;;
41966;SDS011;27656;53.068;8.818;2024-01-11T04:06:56;87.73;;;31.53;;
41966;SDS011;27656;53.068;8.818;2024-01-11T04:09:22;76.60;;;28.40;;
41966;SDS011;27656;53.068;8.818;2024-01-11T04:11:49;84.57;;;29.63;;
41966;SDS011;27656;53.068;8.818;2024-01-11T04:14:15;84.00;;;30.93;;
41966;SDS011;27656;53.068;8.818;2024-01-11T04:16:42;90.37;;;30.93;;
41966;SDS011;27656;53.068;8.818;2024-01-11T04:19:09;90.67;;;30.37;;
41966;SDS011;27656;53.068;8.818;2024-01-11T04:21:36;84.33;;;30.40;;
41966;SDS011;27656;53.068;8.818;2024-01-11T04:24:05;90.13;;;32.13;;
41966;SDS011;27656;53.068;8.818;2024-01-11T04:26:32;87.27;;;32.30;;
41966;SDS011;27656;53.068;8.818;2024-01-11T04:28:59;89.57;;;31.30;;
41966;SDS011;27656;53.068;8.818;2024-01-11T04:31:26;88.47;;;30.77;;
41966;SDS011;27656;53.068;8.818;2024-01-11T04:33:53;80.23;;;28.10;;
41966;SDS011;27656;53.068;8.818;2024-01-11T04:36:21;83.43;;;28.57;;
41966;SDS011;27656;53.068;8.818;2024-01-11T04:38:47;82.50;;;30.23;;
41966;SDS011;27656;53.068;8.818;2024-01-11T04:41:14;79.50;;;29.47;;
41966;SDS011;27656;53.068;8.818;2024-01-11T04:43:42;77.83;;;28.33;;
41966;SDS011;27656;53.068;8.818;2024-01-11T04:46:16;77.67;;;27.50;;
41966;SDS011;27656;53.068;8.818;2024-01-11T04:48:47;75.27;;;26.80;;
41966;SDS011;27656;53.068;8.818;2024-01-11T04:51:15;76.47;;;28.40;;
41966;SDS011;27656;53.068;8.818;2024-01-11T04:53:43;77.70;;;27.33;;
41966;SDS011;27656;53.068;8.818;2024-01-11T04:56:11;84.83;;;27.80;;
41966;SDS011;27656;53.068;8.818;2024-01-11T04:58:40;75.67;;;27.83;;
41966;SDS011;27656;53.068;8.818;2024-01-11T05:01:14;81.40;;;28.00;;
41966;SDS011;27656;53.068;8.818;2024-01-11T05:03:42;73.57;;;27.77;;
41966;SDS011;27656;53.068;8.818;2024-01-11T05:06:16;78.53;;;27.77;;
41966;SDS011;27656;53.068;8.818;2024-01-11T05:08:47;78.37;;;27.23;;
41966;SDS011;27656;53.068;8.818;2024-01-11T05:11:16;78.00;;;27.00;;
41966;SDS011;27656;53.068;8.818;2024-01-11T05:13:43;70.30;;;26.93;;
41966;SDS011;27656;53.068;8.818;2024-01-11T05:16:26;73.27;;;26.37;;
41966;SDS011;27656;53.068;8.818;2024-01-11T05:18:54;70.20;;;26.57;;
41966;SDS011;27656;53.068;8.818;2024-01-11T05:21:22;80.40;;;28.90;;
41966;SDS011;27656;53.068;8.818;2024-01-11T05:23:49;68.37;;;26.60;;
41966;SDS011;27656;53.068;8.818;2024-01-11T05:26:17;79.83;;;27.97;;
41966;SDS011;27656;53.068;8.818;2024-01-11T05:28:45;72.73;;;27.87;;
41966;SDS011;27656;53.068;8.818;2024-01-11T05:31:12;75.63;;;27.63;;
41966;SDS011;27656;53.068;8.818;2024-01-11T05:33:40;73.10;;;27.47;;
41966;SDS011;27656;53.068;8.818;2024-01-11T05:36:07;81.70;;;28.70;;
41966;SDS011;27656;53.068;8.818;2024-01-11T05:38:34;82.00;;;29.67;;
41966;SDS011;27656;53.068;8.818;2024-01-11T05:41:01;74.30;;;27.93;;
41966;SDS011;27656;53.068;8.818;2024-01-11T05:43:28;83.50;;;28.07;;
41966;SDS011;27656;53.068;8.818;2024-01-11T05:45:54;84.00;;;29.43;;
41966;SDS011;27656;53.068;8.818;2024-01-11T05:48:21;76.67;;;29.00;;
41966;SDS011;27656;53.068;8.818;2024-01-11T05:50:47;77.53;;;28.83;;
41966;SDS011;27656;53.068;8.818;2024-01-11T05:53:14;88.23;;;31.13;;
41966;SDS011;27656;53.068;8.818;2024-01-11T05:55:40;81.80;;;30.17;;
41966;SDS011;27656;53.068;8.818;2024-01-11T05:58:07;84.27;;;30.83;;
41966;SDS011;27656;53.068;8.818;2024-01-11T06:00:33;88.63;;;30.90;;
41966;SDS011;27656;53.068;8.818;2024-01-11T06:03:00;83.43;;;29.87;;
41966;SDS011;27656;53.068;8.818;2024-01-11T06:05:27;82.97;;;30.07;;
41966;SDS011;27656;53.068;8.818;2024-01-11T06:07:54;82.23;;;29.43;;
41966;SDS011;27656;53.068;8.818;2024-01-11T06:10:20;80.90;;;30.40;;
41966;SDS011;27656;53.068;8.818;2024-01-11T06:12:46;82.60;;;30.47;;
41966;SDS011;27656;53.068;8.818;2024-01-11T06:15:13;89.00;;;31.23;;
41966;SDS011;27656;53.068;8.818;2024-01-11T06:17:39;88.23;;;31.53;;
41966;SDS011;27656;53.068;8.818;2024-01-11T06:20:06;84.40;;;32.63;;
41966;SDS011;27656;53.068;8.818;2024-01-11T06:22:33;91.47;;;31.40;;
41966;SDS011;27656;53.068;8.818;2024-01-11T06:25:00;92.13;;;30.93;;
41966;SDS011;27656;53.068;8.818;2024-01-11T06:27:26;86.47;;;31.83;;
41966;SDS011;27656;53.068;8.818;2024-01-11T06:29:53;86.40;;;32.13;;
41966;SDS011;27656;53.068;8.818;2024-01-11T06:32:19;99.37;;;34.00;;
41966;SDS011;27656;53.068;8.818;2024-01-11T06:34:46;97.67;;;32.13;;
41966;SDS011;27656;53.068;8.818;2024-01-11T06:37:13;88.67;;;30.67;;
41966;SDS011;27656;53.068;8.818;2024-01-11T06:39:40;83.57;;;31.10;;
41966;SDS011;27656;53.068;8.818;2024-01-11T06:42:06;86.90;;;32.67;;
41966;SDS011;27656;53.068;8.818;2024-01-11T06:44:33;88.90;;;31.60;;
41966;SDS011;27656;53.068;8.818;2024-01-11T06:47:00;92.97;;;32.27;;
41966;SDS011;27656;53.068;8.818;2024-01-11T06:49:28;91.10;;;31.27;;
41966;SDS011;27656;53.068;8.818;2024-01-11T06:51:54;91.37;;;32.20;;
41966;SDS011;27656;53.068;8.818;2024-01-11T06:54:21;83.33;;;31.43;;
41966;SDS011;27656;53.068;8.818;2024-01-11T06:56:47;84.83;;;32.57;;
41966;SDS011;27656;53.068;8.818;2024-01-11T06:59:14;86.17;;;31.17;;
41966;SDS011;27656;53.068;8.818;2024-01-11T07:01:44;90.87;;;31.23;;
41966;SDS011;27656;53.068;8.818;2024-01-11T07:04:11;95.23;;;34.30;;
41966;SDS011;27656;53.068;8.818;2024-01-11T07:06:37;84.80;;;32.27;;
41966;SDS011;27656;53.068;8.818;2024-01-11T07:09:04;94.90;;;32.97;;
41966;SDS011;27656;53.068;8.818;2024-01-11T07:11:32;84.63;;;30.73;;
41966;SDS011;27656;53.068;8.818;2024-01-11T07:14:21;83.30;;;30.63;;
41966;SDS011;27656;53.068;8.818;2024-01-11T07:16:46;88.97;;;31.13;;
41966;SDS011;27656;53.068;8.818;2024-01-11T07:19:13;89.53;;;32.47;;
41966;SDS011;27656;53.068;8.818;2024-01-11T07:21:39;94.60;;;31.17;;
41966;SDS011;27656;53.068;8.818;2024-01-11T07:24:06;88.30;;;30.93;;
41966;SDS011;27656;53.068;8.818;2024-01-11T07:26:33;86.87;;;29.97;;
41966;SDS011;27656;53.068;8.818;2024-01-11T07:28:59;95.73;;;31.80;;
41966;SDS011;27656;53.068;8.818;2024-01-11T07:31:26;101.90;;;32.87;;
41966;SDS011;27656;53.068;8.818;2024-01-11T07:33:52;92.87;;;32.07;;
41966;SDS011;27656;53.068;8.818;2024-01-11T07:36:19;94.73;;;31.57;;
41966;SDS011;27656;53.068;8.818;2024-01-11T07:38:46;101.40;;;32.70;;
41966;SDS011;27656;53.068;8.818;2024-01-11T07:41:13;105.37;;;31.93;;
41966;SDS011;27656;53.068;8.818;2024-01-11T07:43:40;93.23;;;30.50;;
41966;SDS011;27656;53.068;8.818;2024-01-11T07:46:19;98.53;;;31.07;;
41966;SDS011;27656;53.068;8.818;2024-01-11T07:48:58;101.90;;;31.93;;
41966;SDS011;27656;53.068;8.818;2024-01-11T07:51:25;108.30;;;32.13;;
41966;SDS011;27656;53.068;8.818;2024-01-11T07:53:53;96.20;;;30.83;;
41966;SDS011;27656;53.068;8.818;2024-01-11T07:56:19;100.57;;;33.00;;
41966;SDS011;27656;53.068;8.818;2024-01-11T07:58:46;90.57;;;31.97;;
41966;SDS011;27656;53.068;8.818;2024-01-11T08:01:18;101.20;;;32.20;;
41966;SDS011;27656;53.068;8.818;2024-01-11T08:03:47;93.30;;;30.93;;
41966;SDS011;27656;53.068;8.818;2024-01-11T08:06:20;96.97;;;31.53;;
41966;SDS011;27656;53.068;8.818;2024-01-11T08:08:47;94.63;;;32.60;;
41966;SDS011;27656;53.068;8.818;2024-01-11T08:11:19;95.40;;;31.90;;
41966;SDS011;27656;53.068;8.818;2024-01-11T08:13:46;99.33;;;33.67;;
41966;SDS011;27656;53.068;8.818;2024-01-11T08:16:16;96.80;;;32.63;;
41966;SDS011;27656;53.068;8.818;2024-01-11T08:18:44;97.10;;;32.70;;
41966;SDS011;27656;53.068;8.818;2024-01-11T08:21:11;103.10;;;33.60;;
41966;SDS011;27656;53.068;8.818;2024-01-11T08:23:40;87.90;;;31.23;;
41966;SDS011;27656;53.068;8.818;2024-01-11T08:26:12;95.13;;;31.30;;
41966;SDS011;27656;53.068;8.818;2024-01-11T08:28:40;92.30;;;31.37;;
41966;SDS011;27656;53.068;8.818;2024-01-11T08:31:07;104.70;;;33.23;;
41966;SDS011;27656;53.068;8.818;2024-01-11T08:33:35;104.90;;;32.80;;
41966;SDS011;27656;53.068;8.818;2024-01-11T08:36:04;95.00;;;32.37;;
41966;SDS011;27656;53.068;8.818;2024-01-11T08:38:33;102.57;;;33.10;;
41966;SDS011;27656;53.068;8.818;2024-01-11T08:41:00;100.87;;;31.47;;
41966;SDS011;27656;53.068;8.818;2024-01-11T08:43:27;95.13;;;31.67;;
41966;SDS011;27656;53.068;8.818;2024-01-11T08:45:54;101.07;;;32.40;;
41966;SDS011;27656;53.068;8.818;2024-01-11T08:48:21;90.37;;;31.07;;
41966;SDS011;27656;53.068;8.818;2024-01-11T08:50:47;94.33;;;31.60;;
41966;SDS011;27656;53.068;8.818;2024-01-11T08:53:14;100.33;;;33.20;;
41966;SDS011;27656;53.068;8.818;2024-01-11T08:55:42;97.77;;;32.23;;
41966;SDS011;27656;53.068;8.818;2024-01-11T08:58:11;94.60;;;30.70;;
41966;SDS011;27656;53.068;8.818;2024-01-11T09:00:38;90.73;;;31.53;;
41966;SDS011;27656;53.068;8.818;2024-01-11T09:03:05;89.87;;;30.53;;
41966;SDS011;27656;53.068;8.818;2024-01-11T09:05:31;92.63;;;31.13;;
41966;SDS011;27656;53.068;8.818;2024-01-11T09:07:58;97.30;;;31.67;;
41966;SDS011;27656;53.068;8.818;2024-01-11T09:10:25;89.67;;;31.23;;
41966;SDS011;27656;53.068;8.818;2024-01-11T09:12:51;97.10;;;31.27;;
41966;SDS011;27656;53.068;8.818;2024-01-11T09:15:18;99.77;;;32.97;;
41966;SDS011;27656;53.068;8.818;2024-01-11T09:17:44;105.87;;;32.60;;
41966;SDS011;27656;53.068;8.818;2024-01-11T09:20:11;98.30;;;32.80;;
41966;SDS011;27656;53.068;8.818;2024-01-11T09:22:40;93.20;;;33.17;;
41966;SDS011;27656;53.068;8.818;2024-01-11T09:25:07;92.10;;;32.27;;
41966;SDS011;27656;53.068;8.818;2024-01-11T09:27:34;93.50;;;30.90;;
41966;SDS011;27656;53.068;8.818;2024-01-11T09:30:01;91.27;;;31.43;;
41966;SDS011;27656;53.068;8.818;2024-01-11T09:32:28;89.63;;;31.80;;
41966;SDS011;27656;53.068;8.818;2024-01-11T09:34:57;90.33;;;31.63;;
41966;SDS011;27656;53.068;8.818;2024-01-11T09:37:24;91.23;;;31.13;;
41966;SDS011;27656;53.068;8.818;2024-01-11T09:39:50;89.50;;;30.60;;
41966;SDS011;27656;53.068;8.818;2024-01-11T09:42:17;90.43;;;30.37;;
41966;SDS011;27656;53.068;8.818;2024-01-11T09:44:44;83.23;;;29.97;;
41966;SDS011;27656;53.068;8.818;2024-01-11T09:47:12;95.10;;;32.57;;
41966;SDS011;27656;53.068;8.818;2024-01-11T09:49:42;86.13;;;30.87;;
41966;SDS011;27656;53.068;8.818;2024-01-11T09:52:11;83.73;;;29.83;;
41966;SDS011;27656;53.068;8.818;2024-01-11T09:54:40;85.97;;;30.80;;
41966;SDS011;27656;53.068;8.818;2024-01-11T09:57:24;80.00;;;29.57;;
41966;SDS011;27656;53.068;8.818;2024-01-11T09:59:54;80.50;;;28.97;;
41966;SDS011;27656;53.068;8.818;2024-01-11T10:02:25;82.90;;;29.77;;
41966;SDS011;27656;53.068;8.818;2024-01-11T10:04:55;81.77;;;29.90;;
41966;SDS011;27656;53.068;8.818;2024-01-11T10:07:23;81.07;;;31.43;;
41966;SDS011;27656;53.068;8.818;2024-01-11T10:09:51;87.40;;;30.80;;
41966;SDS011;27656;53.068;8.818;2024-01-11T10:12:18;77.73;;;29.73;;
41966;SDS011;27656;53.068;8.818;2024-01-11T10:14:46;77.60;;;30.27;;
41966;SDS011;27656;53.068;8.818;2024-01-11T10:17:13;81.30;;;31.33;;
41966;SDS011;27656;53.068;8.818;2024-01-11T10:19:47;73.87;;;28.63;;
41966;SDS011;27656;53.068;8.818;2024-01-11T10:22:14;76.83;;;28.57;;
41966;SDS011;27656;53.068;8.818;2024-01-11T10:24:43;79.10;;;29.50;;
41966;SDS011;27656;53.068;8.818;2024-01-11T10:27:10;73.50;;;28.13;;
41966;SDS011;27656;53.068;8.818;2024-01-11T10:29:36;83.10;;;28.77;;
41966;SDS011;27656;53.068;8.818;2024-01-11T10:32:03;76.33;;;29.30;;
41966;SDS011;27656;53.068;8.818;2024-01-11T10:34:32;87.80;;;30.10;;
41966;SDS011;27656;53.068;8.818;2024-01-11T10:37:07;82.77;;;28.57;;
41966;SDS011;27656;53.068;8.818;2024-01-11T10:39:36;74.40;;;29.03;;
41966;SDS011;27656;53.068;8.818;2024-01-11T10:42:05;84.17;;;30.03;;
41966;SDS011;27656;53.068;8.818;2024-01-11T10:44:34;78.23;;;28.03;;
41966;SDS011;27656;53.068;8.818;2024-01-11T10:47:02;78.40;;;27.97;;
41966;SDS011;27656;53.068;8.818;2024-01-11T10:49:33;73.57;;;27.80;;
41966;SDS011;27656;53.068;8.818;2024-01-11T10:52:02;74.93;;;28.57;;
41966;SDS011;27656;53.068;8.818;2024-01-11T10:54:31;71.00;;;27.33;;
41966;SDS011;27656;53.068;8.818;2024-01-11T10:57:00;80.50;;;28.33;;
41966;SDS011;27656;53.068;8.818;2024-01-11T10:59:27;73.03;;;27.57;;
41966;SDS011;27656;53.068;8.818;2024-01-11T11:02:01;68.00;;;26.57;;
41966;SDS011;27656;53.068;8.818;2024-01-11T11:04:32;67.53;;;26.20;;
41966;SDS011;27656;53.068;8.818;2024-01-11T11:07:01;64.27;;;25.90;;
41966;SDS011;27656;53.068;8.818;2024-01-11T11:09:28;67.20;;;25.93;;
41966;SDS011;27656;53.068;8.818;2024-01-11T11:11:57;74.83;;;27.10;;
41966;SDS011;27656;53.068;8.818;2024-01-11T11:14:24;69.47;;;26.07;;
41966;SDS011;27656;53.068;8.818;2024-01-11T11:16:52;63.77;;;25.23;;
41966;SDS011;27656;53.068;8.818;2024-01-11T11:19:19;70.53;;;25.73;;
41966;SDS011;27656;53.068;8.818;2024-01-11T11:21:47;67.17;;;25.73;;
41966;SDS011;27656;53.068;8.818;2024-01-11T11:24:14;70.83;;;26.17;;
41966;SDS011;27656;53.068;8.818;2024-01-11T11:26:43;59.47;;;24.37;;
41966;SDS011;27656;53.068;8.818;2024-01-11T11:29:09;68.97;;;27.07;;
41966;SDS011;27656;53.068;8.818;2024-01-11T11:34:06;66.13;;;26.30;;
41966;SDS011;27656;53.068;8.818;2024-01-11T11:36:33;72.33;;;26.13;;
41966;SDS011;27656;53.068;8.818;2024-01-11T11:39:01;68.10;;;26.50;;
41966;SDS011;27656;53.068;8.818;2024-01-11T11:41:29;70.40;;;25.87;;
41966;SDS011;27656;53.068;8.818;2024-01-11T11:44:02;72.17;;;26.47;;
41966;SDS011;27656;53.068;8.818;2024-01-11T11:46:31;69.37;;;26.50;;
41966;SDS011;27656;53.068;8.818;2024-01-11T11:48:59;62.97;;;25.10;;
41966;SDS011;27656;53.068;8.818;2024-01-11T11:51:26;69.33;;;25.17;;
41966;SDS011;27656;53.068;8.818;2024-01-11T11:53:54;73.00;;;25.00;;
41966;SDS011;27656;53.068;8.818;2024-01-11T11:56:22;59.97;;;23.90;;
41966;SDS011;27656;53.068;8.818;2024-01-11T11:58:50;67.07;;;25.67;;
41966;SDS011;27656;53.068;8.818;2024-01-11T12:01:19;67.37;;;24.83;;
41966;SDS011;27656;53.068;8.818;2024-01-11T12:03:46;67.77;;;24.83;;
41966;SDS011;27656;53.068;8.818;2024-01-11T12:06:16;73.57;;;27.30;;
41966;SDS011;27656;53.068;8.818;2024-01-11T12:08:44;69.33;;;24.67;;
41966;SDS011;27656;53.068;8.818;2024-01-11T12:11:18;73.57;;;26.03;;
41966;SDS011;27656;53.068;8.818;2024-01-11T12:13:49;68.67;;;24.93;;
41966;SDS011;27656;53.068;8.818;2024-01-11T12:16:16;63.53;;;24.47;;
41966;SDS011;27656;53.068;8.818;2024-01-11T12:18:43;68.60;;;26.03;;
41966;SDS011;27656;53.068;8.818;2024-01-11T12:21:10;71.97;;;24.73;;
41966;SDS011;27656;53.068;8.818;2024-01-11T12:23:38;65.70;;;23.50;;
41966;SDS011;27656;53.068;8.818;2024-01-11T12:26:06;52.47;;;20.60;;
41966;SDS011;27656;53.068;8.818;2024-01-11T12:28:39;70.47;;;24.03;;
41966;SDS011;27656;53.068;8.818;2024-01-11T12:31:06;58.40;;;23.97;;
41966;SDS011;27656;53.068;8.818;2024-01-11T12:33:33;66.17;;;23.73;;
41966;SDS011;27656;53.068;8.818;2024-01-11T12:36:03;68.03;;;24.73;;
41966;SDS011;27656;53.068;8.818;2024-01-11T12:38:33;66.97;;;25.33;;
41966;SDS011;27656;53.068;8.818;2024-01-11T12:41:00;61.10;;;24.30;;
41966;SDS011;27656;53.068;8.818;2024-01-11T12:43:27;62.83;;;24.00;;
41966;SDS011;27656;53.068;8.818;2024-01-11T12:45:54;60.57;;;23.30;;
41966;SDS011;27656;53.068;8.818;2024-01-11T12:48:21;55.13;;;22.63;;
41966;SDS011;27656;53.068;8.818;2024-01-11T12:50:48;66.53;;;25.07;;
41966;SDS011;27656;53.068;8.818;2024-01-11T12:53:14;64.03;;;24.97;;
41966;SDS011;27656;53.068;8.818;2024-01-11T12:55:48;60.73;;;23.97;;
41966;SDS011;27656;53.068;8.818;2024-01-11T12:58:23;61.83;;;22.67;;
41966;SDS011;27656;53.068;8.818;2024-01-11T13:00:52;62.33;;;22.87;;
41966;SDS011;27656;53.068;8.818;2024-01-11T13:03:19;60.33;;;22.73;;
41966;SDS011;27656;53.068;8.818;2024-01-11T13:05:47;65.07;;;23.50;;
41966;SDS011;27656;53.068;8.818;2024-01-11T13:08:13;62.00;;;23.47;;
41966;SDS011;27656;53.068;8.818;2024-01-11T13:10:42;59.00;;;22.37;;
41966;SDS011;27656;53.068;8.818;2024-01-11T13:13:08;56.03;;;22.20;;
41966;SDS011;27656;53.068;8.818;2024-01-11T13:15:35;62.57;;;23.80;;
41966;SDS011;27656;53.068;8.818;2024-01-11T13:18:05;58.40;;;22.77;;
41966;SDS011;27656;53.068;8.818;2024-01-11T13:20:32;56.63;;;22.43;;
41966;SDS011;27656;53.068;8.818;2024-01-11T13:23:15;55.53;;;21.40;;
41966;SDS011;27656;53.068;8.818;2024-01-11T13:25:42;59.63;;;24.07;;
41966;SDS011;27656;53.068;8.818;2024-01-11T13:28:10;61.87;;;24.93;;
41966;SDS011;27656;53.068;8.818;2024-01-11T13:30:40;61.27;;;23.07;;
41966;SDS011;27656;53.068;8.818;2024-01-11T13:33:08;52.80;;;21.97;;
41966;SDS011;27656;53.068;8.818;2024-01-11T13:35:37;53.83;;;21.43;;
41966;SDS011;27656;53.068;8.818;2024-01-11T13:38:05;56.67;;;23.30;;
41966;SDS011;27656;53.068;8.818;2024-01-11T13:40:32;54.87;;;21.70;;
41966;SDS011;27656;53.068;8.818;2024-01-11T13:42:59;56.03;;;23.13;;
41966;SDS011;27656;53.068;8.818;2024-01-11T13:45:26;55.10;;;21.10;;
41966;SDS011;27656;53.068;8.818;2024-01-11T13:47:52;47.43;;;20.13;;
41966;SDS011;27656;53.068;8.818;2024-01-11T13:50:20;50.20;;;20.50;;
41966;SDS011;27656;53.068;8.818;2024-01-11T13:52:51;50.20;;;21.23;;
41966;SDS011;27656;53.068;8.818;2024-01-11T13:55:18;47.97;;;19.77;;
41966;SDS011;27656;53.068;8.818;2024-01-11T13:57:48;49.17;;;21.03;;
41966;SDS011;27656;53.068;8.818;2024-01-11T14:00:16;59.63;;;21.90;;
41966;SDS011;27656;53.068;8.818;2024-01-11T14:02:44;51.07;;;20.30;;
41966;SDS011;27656;53.068;8.818;2024-01-11T14:05:12;51.13;;;20.27;;
41966;SDS011;27656;53.068;8.818;2024-01-11T14:07:40;48.97;;;20.37;;
41966;SDS011;27656;53.068;8.818;2024-01-11T14:10:07;52.80;;;21.10;;
41966;SDS011;27656;53.068;8.818;2024-01-11T14:12:36;47.37;;;19.97;;
41966;SDS011;27656;53.068;8.818;2024-01-11T14:15:03;47.77;;;19.07;;
41966;SDS011;27656;53.068;8.818;2024-01-11T14:17:31;50.53;;;21.07;;
41966;SDS011;27656;53.068;8.818;2024-01-11T14:19:59;48.13;;;20.30;;
41966;SDS011;27656;53.068;8.818;2024-01-11T14:22:27;51.47;;;20.40;;
41966;SDS011;27656;53.068;8.818;2024-01-11T14:24:54;52.13;;;19.00;;
41966;SDS011;27656;53.068;8.818;2024-01-11T14:27:20;49.77;;;21.50;;